createdAt,value
2023-05-19T00:00:55.962Z,99.80
2023-05-19T00:02:05.680Z,99.80
2023-05-19T00:03:09.230Z,99.80
2023-05-19T00:04:14.732Z,99.80
2023-05-19T00:05:18.654Z,99.80
2023-05-19T00:06:27.313Z,99.90
2023-05-19T00:07:32.614Z,99.90
2023-05-19T00:08:38.142Z,99.90
2023-05-19T00:09:41.106Z,99.90
2023-05-19T00:10:44.348Z,99.90
2023-05-19T00:11:47.328Z,99.90
2023-05-19T00:12:51.361Z,99.90
2023-05-19T00:13:58.609Z,99.90
2023-05-19T00:15:01.497Z,99.90
2023-05-19T00:16:04.623Z,99.90
2023-05-19T00:17:07.981Z,99.90
2023-05-19T00:18:13.997Z,99.90
2023-05-19T00:19:17.031Z,99.90
2023-05-19T00:20:19.812Z,99.90
2023-05-19T00:21:22.530Z,99.90
2023-05-19T00:22:25.125Z,99.90
2023-05-19T00:23:27.768Z,99.90
2023-05-19T00:24:30.465Z,99.90
2023-05-19T00:25:33.108Z,99.90
2023-05-19T00:26:35.948Z,99.90
2023-05-19T00:27:41.088Z,99.90
2023-05-19T00:28:43.765Z,99.90
2023-05-19T00:29:46.337Z,99.90
2023-05-19T00:30:48.984Z,99.90
2023-05-19T00:31:51.713Z,99.90
2023-05-19T00:32:54.546Z,99.90
2023-05-19T00:33:57.365Z,99.90
2023-05-19T00:35:01.333Z,99.90
2023-05-19T00:36:04.603Z,99.90
2023-05-19T00:37:07.311Z,99.90
2023-05-19T00:38:10.150Z,99.90
2023-05-19T00:39:12.815Z,99.90
2023-05-19T00:40:15.839Z,99.90
2023-05-19T00:41:18.829Z,99.90
2023-05-19T00:42:21.710Z,99.90
2023-05-19T00:43:24.316Z,99.90
2023-05-19T00:44:27.049Z,99.90
2023-05-19T00:45:29.691Z,99.90
2023-05-19T00:46:32.343Z,99.90
2023-05-19T00:47:35.443Z,99.90
2023-05-19T00:48:38.100Z,99.90
2023-05-19T00:49:41.032Z,99.90
2023-05-19T00:50:45.250Z,99.90
2023-05-19T00:51:48.933Z,99.90
2023-05-19T00:52:51.892Z,99.90
2023-05-19T00:53:54.657Z,99.90
2023-05-19T00:54:57.319Z,99.90
2023-05-19T00:56:01.034Z,99.90
2023-05-19T00:57:04.394Z,99.90
2023-05-19T00:58:09.873Z,99.90
2023-05-19T00:59:12.533Z,99.90
2023-05-19T01:00:16.286Z,99.90
2023-05-19T01:01:21.715Z,99.90
2023-05-19T01:02:25.698Z,99.90
2023-05-19T01:03:31.179Z,99.90
2023-05-19T01:04:36.483Z,99.90
2023-05-19T01:05:45.927Z,99.90
2023-05-19T01:06:55.079Z,99.90
2023-05-19T01:07:57.782Z,99.90
2023-05-19T01:09:00.761Z,99.90
2023-05-19T01:10:04.633Z,99.90
2023-05-19T01:11:08.329Z,99.90
2023-05-19T01:12:11.094Z,99.90
2023-05-19T01:13:13.920Z,99.90
2023-05-19T01:14:17.476Z,99.90
2023-05-19T01:15:20.120Z,99.90
2023-05-19T01:16:43.715Z,99.90
2023-05-19T01:17:56.991Z,99.90
2023-05-19T01:19:26.551Z,99.90
2023-05-19T01:20:39.438Z,99.90
2023-05-19T01:22:22.987Z,99.90
2023-05-19T01:24:23.056Z,99.90
2023-05-19T01:26:14.641Z,99.90
2023-05-19T01:27:50.705Z,99.90
2023-05-19T01:29:24.366Z,99.90
2023-05-19T01:30:40.914Z,99.90
2023-05-19T01:31:47.221Z,99.90
2023-05-19T01:32:54.148Z,99.90
2023-05-19T01:34:00.840Z,99.90
2023-05-19T01:35:05.888Z,99.90
2023-05-19T01:36:10.915Z,99.90
2023-05-19T01:37:15.390Z,99.90
2023-05-19T01:38:20.604Z,99.90
2023-05-19T01:39:24.844Z,99.90
2023-05-19T01:40:28.826Z,99.90
2023-05-19T01:41:34.277Z,99.90
2023-05-19T01:42:40.967Z,99.90
2023-05-19T01:43:43.743Z,99.90
2023-05-19T01:44:47.675Z,99.90
2023-05-19T01:45:51.815Z,99.90
2023-05-19T01:46:54.866Z,99.90
2023-05-19T01:48:01.213Z,99.90
2023-05-19T01:49:04.986Z,99.90
2023-05-19T01:50:08.158Z,99.90
2023-05-19T01:51:10.865Z,99.90
2023-05-19T01:52:13.603Z,99.90
2023-05-19T01:53:16.484Z,99.90
2023-05-19T01:54:19.265Z,99.90
2023-05-19T01:55:25.731Z,99.90
2023-05-19T01:56:56.230Z,99.90
2023-05-19T01:58:27.073Z,99.90
2023-05-19T01:59:49.014Z,99.90
2023-05-19T02:01:31.319Z,99.90
2023-05-19T02:02:55.001Z,99.90
2023-05-19T02:04:18.709Z,99.90
2023-05-19T02:05:50.594Z,99.90
2023-05-19T02:07:03.993Z,99.90
2023-05-19T02:08:21.297Z,99.90
2023-05-19T02:09:42.208Z,99.90
2023-05-19T02:10:52.147Z,99.90
2023-05-19T02:11:56.396Z,99.90
2023-05-19T02:13:04.866Z,99.90
2023-05-19T02:14:21.593Z,99.90
2023-05-19T02:15:42.189Z,99.90
2023-05-19T02:16:48.931Z,99.90
2023-05-19T02:17:54.535Z,99.90
2023-05-19T02:18:57.540Z,99.90
2023-05-19T02:20:00.362Z,99.90
2023-05-19T02:21:03.509Z,99.90
2023-05-19T02:22:06.982Z,99.90
2023-05-19T02:23:09.636Z,99.90
2023-05-19T02:24:12.237Z,99.90
2023-05-19T02:25:14.968Z,99.90
2023-05-19T02:26:17.606Z,99.90
2023-05-19T02:27:20.230Z,99.90
2023-05-19T02:28:23.160Z,99.90
2023-05-19T02:29:25.929Z,99.90
2023-05-19T02:30:28.546Z,99.90
2023-05-19T02:31:31.238Z,99.90
2023-05-19T02:32:34.187Z,99.90
2023-05-19T02:33:37.564Z,99.90
2023-05-19T02:34:42.301Z,99.90
2023-05-19T02:35:45.023Z,99.90
2023-05-19T02:36:49.980Z,99.90
2023-05-19T02:37:52.691Z,99.90
2023-05-19T02:38:55.672Z,99.90
2023-05-19T02:39:58.887Z,99.90
2023-05-19T02:41:01.541Z,99.90
2023-05-19T02:42:04.461Z,99.90
2023-05-19T02:43:08.117Z,99.90
2023-05-19T02:44:10.800Z,99.90
2023-05-19T02:45:13.747Z,99.90
2023-05-19T02:46:17.293Z,99.90
2023-05-19T02:47:19.930Z,99.90
2023-05-19T02:48:22.530Z,99.90
2023-05-19T02:49:25.138Z,99.90
2023-05-19T02:50:27.799Z,99.90
2023-05-19T02:51:30.637Z,99.90
2023-05-19T02:52:33.241Z,99.90
2023-05-19T02:53:36.829Z,99.90
2023-05-19T02:54:39.445Z,99.90
2023-05-19T02:55:42.815Z,99.90
2023-05-19T02:56:45.499Z,99.90
2023-05-19T02:57:48.307Z,99.90
2023-05-19T02:58:51.003Z,99.90
2023-05-19T02:59:53.823Z,99.90
2023-05-19T03:00:56.797Z,99.90
2023-05-19T03:02:03.068Z,99.90
2023-05-19T03:03:05.823Z,99.90
2023-05-19T03:04:08.528Z,99.90
2023-05-19T03:05:11.269Z,99.90
2023-05-19T03:06:14.247Z,99.90
2023-05-19T03:07:17.059Z,99.90
2023-05-19T03:08:20.226Z,99.90
2023-05-19T03:09:22.931Z,99.90
2023-05-19T03:10:25.818Z,99.90
2023-05-19T03:11:29.723Z,99.90
2023-05-19T03:12:33.604Z,99.90
2023-05-19T03:13:36.695Z,99.90
2023-05-19T03:14:39.399Z,99.90
2023-05-19T03:15:42.600Z,99.90
2023-05-19T03:16:45.588Z,99.90
2023-05-19T03:17:48.784Z,99.90
2023-05-19T03:18:52.383Z,99.90
2023-05-19T03:19:55.172Z,99.90
2023-05-19T03:20:57.827Z,99.90
2023-05-19T03:22:00.665Z,99.90
2023-05-19T03:23:03.392Z,99.90
2023-05-19T03:24:06.770Z,99.90
2023-05-19T03:25:10.459Z,99.90
2023-05-19T03:26:13.156Z,99.90
2023-05-19T03:27:16.590Z,99.90
2023-05-19T03:28:19.387Z,99.90
2023-05-19T03:29:22.076Z,99.90
2023-05-19T03:30:24.702Z,99.90
2023-05-19T03:31:39.587Z,99.90
2023-05-19T03:32:42.420Z,99.90
2023-05-19T03:33:45.255Z,99.90
2023-05-19T03:34:48.094Z,99.90
2023-05-19T03:35:53.083Z,99.90
2023-05-19T03:36:56.091Z,99.90
2023-05-19T03:37:59.180Z,99.90
2023-05-19T03:39:01.855Z,99.90
2023-05-19T03:40:07.382Z,99.90
2023-05-19T03:41:12.588Z,99.90
2023-05-19T03:42:15.327Z,99.90
2023-05-19T03:43:18.186Z,99.90
2023-05-19T03:44:25.730Z,99.90
2023-05-19T03:45:28.980Z,99.90
2023-05-19T03:46:31.911Z,99.90
2023-05-19T03:47:37.172Z,99.90
2023-05-19T03:48:50.835Z,99.90
2023-05-19T03:50:32.214Z,99.90
2023-05-19T03:51:48.387Z,99.90
2023-05-19T03:53:01.633Z,99.90
2023-05-19T03:54:07.583Z,99.90
2023-05-19T03:55:10.542Z,99.90
2023-05-19T03:56:13.998Z,99.90
2023-05-19T03:57:16.713Z,99.90
2023-05-19T03:58:19.419Z,99.90
2023-05-19T03:59:23.659Z,99.90
2023-05-19T04:00:26.342Z,99.90
2023-05-19T04:01:29.083Z,99.90
2023-05-19T04:02:33.070Z,99.90
2023-05-19T04:03:35.938Z,99.90
2023-05-19T04:04:38.701Z,99.90
2023-05-19T04:05:41.344Z,99.90
2023-05-19T04:06:44.019Z,99.90
2023-05-19T04:07:46.932Z,99.90
2023-05-19T04:08:49.719Z,99.90
2023-05-19T04:09:52.394Z,99.90
2023-05-19T04:10:55.014Z,99.90
2023-05-19T04:11:57.732Z,99.90
2023-05-19T04:13:00.760Z,99.90
2023-05-19T04:14:03.509Z,99.90
2023-05-19T04:15:07.029Z,99.90
2023-05-19T04:16:09.860Z,99.90
2023-05-19T04:17:12.632Z,99.90
2023-05-19T04:18:15.309Z,99.90
2023-05-19T04:19:18.150Z,99.90
2023-05-19T04:20:20.891Z,99.90
2023-05-19T04:21:23.612Z,99.90
2023-05-19T04:22:26.459Z,99.90
2023-05-19T04:23:29.095Z,99.90
2023-05-19T04:24:32.680Z,99.90
2023-05-19T04:25:36.440Z,99.90
2023-05-19T04:26:42.416Z,99.90
2023-05-19T04:27:45.135Z,99.90
2023-05-19T04:28:48.465Z,99.90
2023-05-19T04:29:51.125Z,99.90
2023-05-19T04:30:54.114Z,99.90
2023-05-19T04:32:02.479Z,99.90
2023-05-19T04:33:05.782Z,99.90
2023-05-19T04:34:08.530Z,99.90
2023-05-19T04:35:11.284Z,99.90
2023-05-19T04:36:14.101Z,99.90
2023-05-19T04:37:20.208Z,99.90
2023-05-19T04:38:22.878Z,99.90
2023-05-19T04:39:25.741Z,99.90
2023-05-19T04:40:31.381Z,99.90
2023-05-19T04:41:35.022Z,99.50
2023-05-19T04:42:45.875Z,99.40
2023-05-19T04:43:50.135Z,99.40
2023-05-19T04:44:54.067Z,99.40
2023-05-19T04:45:58.789Z,99.20
2023-05-19T04:47:02.349Z,99.20
2023-05-19T04:48:05.335Z,99.10
2023-05-19T04:49:12.635Z,99.10
2023-05-19T04:50:16.898Z,99.10
2023-05-19T04:51:21.129Z,99.30
2023-05-19T04:52:24.253Z,99.40
2023-05-19T04:53:29.357Z,99.60
2023-05-19T04:54:32.221Z,99.70
2023-05-19T04:55:34.925Z,99.70
2023-05-19T04:56:37.914Z,99.50
2023-05-19T04:57:41.735Z,99.40
2023-05-19T04:58:44.973Z,99.40
2023-05-19T04:59:48.039Z,99.40
2023-05-19T05:00:51.518Z,99.40
2023-05-19T05:01:54.240Z,99.40
2023-05-19T05:02:57.825Z,99.40
2023-05-19T05:04:02.918Z,99.10
2023-05-19T05:05:07.999Z,98.80
2023-05-19T05:06:11.916Z,98.90
2023-05-19T05:07:14.601Z,99.00
2023-05-19T05:08:23.019Z,99.00
2023-05-19T05:09:25.844Z,99.00
2023-05-19T05:10:29.449Z,99.00
2023-05-19T05:11:32.471Z,99.00
2023-05-19T05:12:36.429Z,99.00
2023-05-19T05:13:39.460Z,99.00
2023-05-19T05:14:42.608Z,98.90
2023-05-19T05:15:46.342Z,98.90
2023-05-19T05:16:50.315Z,98.90
2023-05-19T05:17:58.074Z,98.90
2023-05-19T05:19:02.316Z,98.80
2023-05-19T05:20:06.872Z,98.70
2023-05-19T05:21:10.419Z,98.70
2023-05-19T05:22:13.478Z,98.60
2023-05-19T05:23:16.769Z,98.40
2023-05-19T05:24:21.925Z,98.30
2023-05-19T05:25:30.132Z,98.10
2023-05-19T05:26:34.541Z,97.90
2023-05-19T05:27:37.611Z,97.80
2023-05-19T05:28:42.046Z,97.60
2023-05-19T05:29:44.840Z,97.30
2023-05-19T05:30:47.616Z,97.00
2023-05-19T05:31:50.759Z,96.90
2023-05-19T05:32:53.685Z,96.60
2023-05-19T05:34:07.804Z,96.50
2023-05-19T05:35:10.824Z,96.40
2023-05-19T05:36:14.828Z,96.30
2023-05-19T05:37:17.536Z,96.20
2023-05-19T05:38:20.129Z,96.10
2023-05-19T05:39:22.844Z,95.70
2023-05-19T05:40:25.916Z,95.40
2023-05-19T05:41:35.092Z,95.00
2023-05-19T05:42:43.352Z,94.90
2023-05-19T05:43:46.780Z,94.70
2023-05-19T05:44:49.410Z,94.40
2023-05-19T05:45:52.914Z,93.80
2023-05-19T05:46:56.403Z,93.70
2023-05-19T05:47:59.589Z,93.30
2023-05-19T05:49:02.675Z,92.90
2023-05-19T05:50:10.810Z,92.90
2023-05-19T05:51:14.003Z,92.80
2023-05-19T05:52:20.126Z,92.40
2023-05-19T05:53:27.092Z,92.10
2023-05-19T05:54:31.102Z,91.70
2023-05-19T05:55:34.675Z,91.40
2023-05-19T05:56:38.036Z,91.20
2023-05-19T05:57:43.438Z,90.80
2023-05-19T05:58:46.130Z,90.30
2023-05-19T05:59:49.003Z,90.30
2023-05-19T06:00:53.554Z,90.20
2023-05-19T06:01:56.438Z,90.10
2023-05-19T06:02:59.981Z,90.00
2023-05-19T06:04:02.801Z,89.60
2023-05-19T06:05:06.722Z,89.90
2023-05-19T06:06:10.195Z,90.00
2023-05-19T06:07:12.909Z,90.10
2023-05-19T06:08:17.340Z,90.30
2023-05-19T06:09:20.357Z,90.60
2023-05-19T06:10:23.761Z,90.80
2023-05-19T06:11:26.650Z,90.90
2023-05-19T06:12:31.657Z,91.10
2023-05-19T06:13:38.624Z,91.30
2023-05-19T06:14:43.993Z,91.60
2023-05-19T06:15:55.829Z,92.00
2023-05-19T06:17:06.939Z,92.00
2023-05-19T06:18:10.417Z,91.70
2023-05-19T06:19:13.107Z,91.90
2023-05-19T06:20:16.366Z,91.90
2023-05-19T06:21:19.103Z,91.90
2023-05-19T06:22:21.792Z,91.20
2023-05-19T06:23:26.817Z,91.40
2023-05-19T06:24:29.569Z,91.00
2023-05-19T06:25:32.745Z,90.90
2023-05-19T06:26:36.122Z,90.80
2023-05-19T06:27:39.340Z,90.80
2023-05-19T06:28:42.007Z,90.90
2023-05-19T06:29:44.938Z,91.00
2023-05-19T06:30:48.179Z,91.20
2023-05-19T06:32:00.058Z,91.20
2023-05-19T06:33:05.951Z,91.50
2023-05-19T06:34:12.358Z,91.00
2023-05-19T06:35:15.131Z,90.60
2023-05-19T06:36:17.878Z,90.10
2023-05-19T06:37:23.094Z,90.20
2023-05-19T06:38:26.662Z,90.10
2023-05-19T06:39:29.336Z,90.00
2023-05-19T06:40:32.214Z,89.20
2023-05-19T06:41:35.380Z,88.50
2023-05-19T06:42:38.046Z,87.80
2023-05-19T06:43:49.815Z,87.80
2023-05-19T06:44:53.471Z,87.80
2023-05-19T06:45:56.550Z,87.50
2023-05-19T06:47:00.974Z,87.00
2023-05-19T06:48:04.070Z,86.00
2023-05-19T06:49:06.810Z,83.40
2023-05-19T06:50:14.779Z,82.80
2023-05-19T06:51:21.899Z,82.80
2023-05-19T06:52:29.278Z,82.90
2023-05-19T06:53:35.114Z,82.80
2023-05-19T06:54:42.128Z,82.50
2023-05-19T06:55:58.197Z,82.30
2023-05-19T06:57:04.353Z,82.00
2023-05-19T06:58:07.382Z,80.80
2023-05-19T06:59:10.962Z,78.50
2023-05-19T07:00:17.815Z,77.50
2023-05-19T07:01:23.748Z,76.20
2023-05-19T07:02:31.090Z,74.10
2023-05-19T07:03:34.019Z,74.30
2023-05-19T07:04:37.004Z,73.50
2023-05-19T07:05:39.701Z,73.90
2023-05-19T07:06:42.362Z,74.30
2023-05-19T07:07:45.326Z,74.20
2023-05-19T07:08:50.444Z,74.60
2023-05-19T07:09:53.899Z,75.00
2023-05-19T07:10:57.329Z,74.90
2023-05-19T07:12:00.042Z,74.90
2023-05-19T07:13:03.062Z,74.60
2023-05-19T07:14:08.478Z,74.40
2023-05-19T07:15:11.853Z,74.90
2023-05-19T07:16:14.663Z,75.80
2023-05-19T07:17:17.350Z,76.50
2023-05-19T07:18:22.401Z,77.10
2023-05-19T07:19:25.183Z,77.30
2023-05-19T07:20:29.488Z,76.80
2023-05-19T07:21:33.595Z,75.20
2023-05-19T07:22:38.230Z,75.60
2023-05-19T07:23:41.156Z,76.00
2023-05-19T07:24:43.775Z,75.30
2023-05-19T07:25:46.453Z,75.10
2023-05-19T07:26:49.276Z,74.60
2023-05-19T07:27:52.018Z,74.80
2023-05-19T07:28:54.630Z,75.30
2023-05-19T07:29:57.265Z,75.00
2023-05-19T07:31:00.830Z,74.40
2023-05-19T07:32:03.869Z,74.00
2023-05-19T07:33:06.985Z,73.90
2023-05-19T07:34:09.844Z,74.70
2023-05-19T07:35:12.500Z,75.40
2023-05-19T07:36:15.205Z,76.00
2023-05-19T07:37:17.859Z,76.50
2023-05-19T07:38:20.567Z,76.20
2023-05-19T07:39:25.361Z,76.70
2023-05-19T07:40:27.998Z,75.90
2023-05-19T07:41:30.770Z,75.10
2023-05-19T07:42:33.618Z,74.10
2023-05-19T07:43:36.224Z,73.60
2023-05-19T07:44:38.893Z,73.00
2023-05-19T07:45:41.545Z,72.20
2023-05-19T07:46:44.243Z,71.60
2023-05-19T07:47:46.923Z,71.10
2023-05-19T07:48:49.640Z,69.60
2023-05-19T07:49:52.260Z,68.40
2023-05-19T07:50:55.201Z,65.60
2023-05-19T07:51:57.856Z,63.70
2023-05-19T07:53:00.768Z,63.40
2023-05-19T07:54:03.368Z,63.00
2023-05-19T07:55:06.290Z,63.00
2023-05-19T07:56:08.986Z,62.50
2023-05-19T07:57:11.658Z,61.90
2023-05-19T07:58:15.149Z,62.10
2023-05-19T07:59:17.904Z,61.40
2023-05-19T08:00:21.711Z,59.80
2023-05-19T08:01:24.389Z,58.50
2023-05-19T08:02:27.277Z,57.80
2023-05-19T08:03:30.791Z,57.50
2023-05-19T08:04:33.902Z,57.70
2023-05-19T08:05:36.844Z,57.10
2023-05-19T08:06:39.672Z,56.30
2023-05-19T08:07:43.602Z,56.50
2023-05-19T08:08:46.415Z,56.90
2023-05-19T08:09:49.186Z,57.60
2023-05-19T08:10:51.954Z,57.60
2023-05-19T08:11:54.721Z,58.20
2023-05-19T08:12:57.410Z,58.50
2023-05-19T08:14:00.189Z,58.20
2023-05-19T08:15:02.825Z,57.90
2023-05-19T08:16:05.997Z,58.20
2023-05-19T08:17:08.775Z,56.50
2023-05-19T08:18:11.456Z,57.00
2023-05-19T08:19:14.198Z,58.30
2023-05-19T08:20:16.801Z,59.20
2023-05-19T08:21:19.444Z,60.30
2023-05-19T08:22:22.116Z,60.00
2023-05-19T08:23:24.783Z,60.10
2023-05-19T08:24:32.853Z,59.10
2023-05-19T08:25:35.758Z,58.50
2023-05-19T08:26:38.446Z,58.10
2023-05-19T08:27:41.166Z,58.20
2023-05-19T08:28:44.347Z,58.40
2023-05-19T08:29:47.316Z,58.10
2023-05-19T08:30:52.655Z,57.40
2023-05-19T08:31:55.425Z,57.10
2023-05-19T08:32:58.254Z,57.90
2023-05-19T08:34:00.916Z,58.50
2023-05-19T08:35:04.330Z,59.30
2023-05-19T08:36:07.039Z,59.60
2023-05-19T08:37:10.850Z,59.30
2023-05-19T08:38:13.567Z,57.60
2023-05-19T08:39:18.292Z,57.70
2023-05-19T08:40:20.966Z,57.90
2023-05-19T08:41:24.049Z,57.00
2023-05-19T08:42:26.676Z,57.10
2023-05-19T08:43:29.520Z,57.20
2023-05-19T08:44:32.417Z,55.80
2023-05-19T08:45:35.306Z,55.90
2023-05-19T08:46:38.099Z,55.30
2023-05-19T08:48:48.893Z,55.60
2023-05-19T08:49:57.465Z,54.70
2023-05-19T08:51:33.884Z,54.80
2023-05-19T08:52:57.841Z,55.70
2023-05-19T08:54:14.955Z,56.70
2023-05-19T08:56:02.215Z,56.40
2023-05-19T08:57:05.827Z,56.80
2023-05-19T08:58:09.978Z,56.80
2023-05-19T08:59:14.825Z,56.50
2023-05-19T09:00:19.997Z,55.90
2023-05-19T09:01:23.161Z,55.50
2023-05-19T09:02:26.109Z,55.30
2023-05-19T09:03:30.359Z,55.40
2023-05-19T09:04:33.796Z,55.60
2023-05-19T09:05:36.809Z,55.50
2023-05-19T09:06:42.505Z,55.20
2023-05-19T09:07:46.295Z,55.40
2023-05-19T09:08:48.914Z,55.40
2023-05-19T09:09:51.861Z,55.90
2023-05-19T09:10:54.503Z,55.90
2023-05-19T09:11:58.135Z,54.80
2023-05-19T09:13:00.791Z,53.50
2023-05-19T09:14:06.645Z,53.10
2023-05-19T09:15:10.951Z,52.90
2023-05-19T09:16:13.637Z,53.30
2023-05-19T09:17:16.573Z,52.80
2023-05-19T09:18:19.440Z,53.30
2023-05-19T09:19:22.869Z,54.10
2023-05-19T09:20:25.720Z,54.50
2023-05-19T09:21:32.883Z,55.00
2023-05-19T09:22:43.007Z,54.90
2023-05-19T09:23:47.611Z,55.70
2023-05-19T09:24:50.579Z,56.50
2023-05-19T09:25:54.003Z,56.50
2023-05-19T09:26:58.484Z,55.40
2023-05-19T09:28:02.804Z,55.10
2023-05-19T09:29:16.637Z,55.20
2023-05-19T09:30:19.646Z,55.20
2023-05-19T09:31:22.655Z,55.30
2023-05-19T09:32:29.090Z,55.30
2023-05-19T09:33:39.334Z,54.70
2023-05-19T09:34:42.378Z,54.50
2023-05-19T09:35:47.709Z,54.80
2023-05-19T09:36:51.853Z,54.90
2023-05-19T09:37:55.444Z,54.80
2023-05-19T09:38:58.123Z,54.90
2023-05-19T09:40:00.896Z,55.30
2023-05-19T09:41:06.831Z,55.90
2023-05-19T09:42:09.445Z,55.10
2023-05-19T09:43:12.821Z,55.50
2023-05-19T09:44:21.329Z,56.00
2023-05-19T09:45:27.307Z,56.00
2023-05-19T09:46:30.433Z,55.60
2023-05-19T09:47:41.164Z,56.10
2023-05-19T09:48:43.949Z,55.40
2023-05-19T09:49:47.861Z,55.30
2023-05-19T09:50:51.915Z,55.10
2023-05-19T09:52:04.208Z,55.10
2023-05-19T09:53:07.218Z,55.80
2023-05-19T09:54:16.390Z,56.40
2023-05-19T09:55:23.106Z,56.10
2023-05-19T09:56:26.183Z,55.80
2023-05-19T09:57:36.055Z,55.30
2023-05-19T09:58:42.841Z,55.40
2023-05-19T09:59:46.312Z,54.80
2023-05-19T10:00:49.429Z,55.10
2023-05-19T10:01:58.085Z,55.00
2023-05-19T10:03:02.214Z,55.40
2023-05-19T10:04:06.109Z,55.60
2023-05-19T10:05:22.935Z,55.20
2023-05-19T10:06:26.983Z,55.50
2023-05-19T10:07:31.090Z,55.90
2023-05-19T10:08:34.578Z,55.80
2023-05-19T10:09:39.519Z,56.10
2023-05-19T10:10:42.428Z,55.00
2023-05-19T10:11:45.726Z,54.90
2023-05-19T10:12:49.747Z,54.10
2023-05-19T10:13:52.549Z,53.90
2023-05-19T10:14:56.082Z,53.70
2023-05-19T10:15:59.937Z,53.50
2023-05-19T10:17:03.970Z,53.90
2023-05-19T10:18:09.462Z,54.60
2023-05-19T10:19:14.342Z,54.20
2023-05-19T10:20:17.939Z,54.60
2023-05-19T10:21:20.906Z,54.30
2023-05-19T10:22:23.595Z,54.40
2023-05-19T10:23:26.887Z,54.80
2023-05-19T10:24:29.599Z,54.60
2023-05-19T10:25:35.048Z,54.50
2023-05-19T10:26:40.446Z,54.50
2023-05-19T10:27:51.891Z,54.50
2023-05-19T10:28:54.622Z,53.70
2023-05-19T10:30:01.758Z,54.50
2023-05-19T10:31:10.298Z,54.60
2023-05-19T10:32:20.153Z,53.70
2023-05-19T10:33:42.247Z,54.70
2023-05-19T10:35:15.701Z,53.40
2023-05-19T10:36:48.923Z,53.50
2023-05-19T10:38:17.352Z,53.90
2023-05-19T10:39:26.140Z,54.00
2023-05-19T10:40:33.807Z,54.00
2023-05-19T10:41:47.752Z,53.50
2023-05-19T10:43:12.055Z,53.70
2023-05-19T10:44:50.855Z,53.60
2023-05-19T10:45:55.298Z,54.10
2023-05-19T10:46:58.024Z,54.30
2023-05-19T10:48:00.778Z,54.50
2023-05-19T10:49:03.613Z,54.50
2023-05-19T10:50:07.953Z,54.70
2023-05-19T10:51:12.328Z,54.80
2023-05-19T10:52:23.291Z,55.20
2023-05-19T10:53:32.786Z,54.80
2023-05-19T10:54:46.390Z,54.60
2023-05-19T10:55:56.349Z,54.70
2023-05-19T10:56:59.037Z,55.00
2023-05-19T10:58:01.681Z,54.70
2023-05-19T10:59:04.431Z,53.80
2023-05-19T11:00:28.588Z,53.10
2023-05-19T11:01:36.112Z,52.40
2023-05-19T11:02:44.077Z,51.10
2023-05-19T11:03:53.796Z,50.80
2023-05-19T11:05:14.563Z,51.30
2023-05-19T11:06:28.340Z,51.10
2023-05-19T11:07:31.332Z,50.10
2023-05-19T11:08:35.114Z,50.90
2023-05-19T11:09:43.549Z,51.10
2023-05-19T11:10:46.425Z,51.20
2023-05-19T11:11:49.729Z,51.60
2023-05-19T11:12:52.733Z,51.70
2023-05-19T11:13:56.563Z,52.10
2023-05-19T11:14:59.826Z,52.50
2023-05-19T11:16:09.126Z,51.90
2023-05-19T11:17:16.380Z,52.20
2023-05-19T11:18:21.071Z,51.40
2023-05-19T11:19:32.331Z,51.80
2023-05-19T11:20:39.444Z,53.20
2023-05-19T11:21:52.355Z,53.70
2023-05-19T11:23:04.663Z,51.60
2023-05-19T11:24:10.592Z,51.40
2023-05-19T11:25:13.246Z,52.10
2023-05-19T11:26:15.932Z,52.10
2023-05-19T11:27:32.756Z,52.40
2023-05-19T11:28:36.578Z,52.10
2023-05-19T11:29:39.268Z,50.80
2023-05-19T11:30:43.995Z,50.60
2023-05-19T11:31:46.738Z,50.90
2023-05-19T11:32:49.799Z,50.70
2023-05-19T11:33:52.675Z,50.70
2023-05-19T11:34:56.622Z,50.80
2023-05-19T11:35:59.564Z,51.30
2023-05-19T11:37:02.193Z,51.20
2023-05-19T11:38:07.230Z,51.80
2023-05-19T11:39:10.627Z,51.50
2023-05-19T11:40:15.796Z,51.60
2023-05-19T11:41:19.506Z,51.20
2023-05-19T11:42:24.266Z,51.00
2023-05-19T11:43:26.921Z,51.40
2023-05-19T11:44:29.575Z,51.60
2023-05-19T11:45:33.441Z,51.80
2023-05-19T11:46:36.499Z,51.10
2023-05-19T11:47:56.450Z,50.40
2023-05-19T11:49:02.392Z,50.60
2023-05-19T11:50:05.456Z,51.10
2023-05-19T11:51:08.429Z,51.30
2023-05-19T11:52:11.392Z,51.60
2023-05-19T11:53:15.283Z,51.90
2023-05-19T11:54:19.327Z,51.50
2023-05-19T11:55:23.261Z,51.10
2023-05-19T11:56:26.214Z,50.40
2023-05-19T11:57:28.955Z,50.70
2023-05-19T11:58:31.992Z,50.90
2023-05-19T11:59:37.785Z,50.00
2023-05-19T12:00:42.370Z,50.40
2023-05-19T12:01:45.220Z,50.20
2023-05-19T12:02:47.962Z,50.10
2023-05-19T12:03:50.854Z,49.60
2023-05-19T12:04:54.481Z,49.30
2023-05-19T12:05:57.311Z,49.00
2023-05-19T12:07:00.273Z,49.30
2023-05-19T12:08:03.164Z,48.90
2023-05-19T12:09:06.557Z,49.60
2023-05-19T12:10:10.770Z,49.60
2023-05-19T12:11:14.297Z,50.00
2023-05-19T12:12:21.497Z,50.10
2023-05-19T12:13:25.449Z,49.80
2023-05-19T12:14:34.518Z,50.20
2023-05-19T12:15:37.559Z,50.30
2023-05-19T12:16:40.820Z,49.50
2023-05-19T12:17:43.615Z,49.20
2023-05-19T12:18:46.244Z,49.30
2023-05-19T12:19:50.171Z,48.50
2023-05-19T12:20:52.951Z,48.60
2023-05-19T12:21:55.617Z,48.60
2023-05-19T12:22:59.449Z,48.10
2023-05-19T12:24:02.726Z,48.60
2023-05-19T12:25:05.917Z,49.50
2023-05-19T12:26:08.739Z,49.80
2023-05-19T12:27:15.659Z,49.90
2023-05-19T12:28:20.145Z,50.20
2023-05-19T12:29:23.182Z,51.10
2023-05-19T12:30:29.926Z,50.80
2023-05-19T12:31:35.303Z,51.30
2023-05-19T12:32:38.380Z,50.50
2023-05-19T12:33:41.045Z,49.50
2023-05-19T12:34:43.725Z,50.10
2023-05-19T12:35:48.045Z,50.60
2023-05-19T12:36:50.737Z,51.40
2023-05-19T12:37:54.743Z,51.30
2023-05-19T12:38:57.667Z,50.50
2023-05-19T12:40:01.063Z,50.50
2023-05-19T12:41:03.873Z,50.40
2023-05-19T12:42:10.785Z,50.90
2023-05-19T12:43:21.143Z,51.40
2023-05-19T12:44:23.781Z,51.70
2023-05-19T12:45:28.413Z,52.30
2023-05-19T12:46:33.457Z,52.40
2023-05-19T12:47:36.728Z,52.40
2023-05-19T12:48:46.899Z,51.80
2023-05-19T12:50:04.963Z,50.90
2023-05-19T12:51:07.718Z,51.30
2023-05-19T12:52:12.906Z,50.60
2023-05-19T12:53:16.258Z,50.50
2023-05-19T12:54:22.373Z,50.00
2023-05-19T12:55:25.661Z,50.30
2023-05-19T12:56:28.385Z,50.30
2023-05-19T12:57:33.777Z,50.30
2023-05-19T12:58:37.614Z,50.20
2023-05-19T12:59:43.284Z,51.00
2023-05-19T13:00:50.619Z,51.20
2023-05-19T13:01:59.798Z,51.30
2023-05-19T13:03:05.423Z,50.10
2023-05-19T13:04:08.428Z,50.10
2023-05-19T13:05:11.379Z,50.30
2023-05-19T13:06:14.300Z,50.70
2023-05-19T13:07:17.003Z,50.00
2023-05-19T13:08:22.079Z,50.30
2023-05-19T13:09:24.774Z,50.00
2023-05-19T13:10:29.001Z,50.50
2023-05-19T13:11:32.045Z,51.60
2023-05-19T13:12:34.790Z,51.20
2023-05-19T13:13:37.903Z,51.40
2023-05-19T13:14:42.555Z,51.40
2023-05-19T13:15:48.914Z,51.40
2023-05-19T13:16:51.959Z,51.40
2023-05-19T13:17:55.208Z,51.60
2023-05-19T13:18:57.873Z,51.90
2023-05-19T13:20:00.605Z,51.20
2023-05-19T13:21:04.062Z,50.80
2023-05-19T13:22:07.055Z,49.90
2023-05-19T13:23:14.063Z,49.90
2023-05-19T13:24:16.979Z,50.40
2023-05-19T13:25:19.928Z,50.10
2023-05-19T13:26:23.724Z,48.90
2023-05-19T13:27:26.424Z,49.50
2023-05-19T13:28:29.481Z,49.70
2023-05-19T13:29:32.164Z,48.90
2023-05-19T13:30:38.012Z,48.60
2023-05-19T13:31:40.973Z,48.80
2023-05-19T13:32:43.862Z,49.20
2023-05-19T13:33:46.579Z,49.00
2023-05-19T13:34:49.208Z,48.90
2023-05-19T13:35:51.948Z,49.40
2023-05-19T13:36:54.621Z,50.00
2023-05-19T13:37:57.282Z,49.80
2023-05-19T13:39:00.860Z,49.60
2023-05-19T13:40:03.764Z,49.50
2023-05-19T13:41:06.447Z,48.60
2023-05-19T13:42:09.124Z,48.80
2023-05-19T13:43:11.846Z,48.90
2023-05-19T13:44:14.497Z,48.80
2023-05-19T13:45:18.368Z,48.50
2023-05-19T13:46:29.539Z,48.80
2023-05-19T13:47:39.661Z,49.30
2023-05-19T13:48:42.278Z,49.10
2023-05-19T13:49:45.049Z,49.50
2023-05-19T13:50:47.729Z,49.40
2023-05-19T13:51:50.412Z,49.80
2023-05-19T13:52:53.804Z,50.20
2023-05-19T13:53:56.416Z,50.70
2023-05-19T13:54:59.065Z,50.70
2023-05-19T13:56:02.371Z,51.00
2023-05-19T13:57:06.225Z,51.50
2023-05-19T13:58:11.070Z,51.60
2023-05-19T13:59:13.886Z,51.90
2023-05-19T14:00:18.370Z,51.10
2023-05-19T14:01:21.098Z,50.50
2023-05-19T14:02:23.769Z,50.30